Terminal Aerodrome Forecast
Issued by NWS Shreveport, LA

Home | Current Version | Previous Version | Text Only | Print | Product List | Glossary On
Versions: 1 2 3 4 5 6 7 8 9 10 11 12 13 14 15
000
FTUS44 KSHV 211912 AAB
TAFTYR
TAF AMD
KTYR 211912Z 2119/2218 19010KT 5SM RA BR VCTS SCT010 OVC020CB
      TEMPO 2119/2121 VRB08KT 2SM TSRA BR
     FM220700 28007KT P6SM VCSH OVC020
     FM220900 32010KT P6SM OVC010
     FM221500 32013G18KT P6SM OVC025=

USA.gov is the U.S. government's official web portal to all federal, state and local government web resources and services.